sensor_id;sensor_type;location;lat;lon;timestamp;temperature;humidity
68051;DHT22;54839;51.364;7.246;2022-10-16T00:01:20;13.00;99.90
68051;DHT22;54839;51.364;7.246;2022-10-16T00:03:47;13.10;99.90
68051;DHT22;54839;51.364;7.246;2022-10-16T00:06:15;13.00;99.90
68051;DHT22;54839;51.364;7.246;2022-10-16T00:08:41;13.00;99.90
68051;DHT22;54839;51.364;7.246;2022-10-16T00:11:09;13.10;99.90
68051;DHT22;54839;51.364;7.246;2022-10-16T00:13:36;13.00;99.90
68051;DHT22;54839;51.364;7.246;2022-10-16T00:16:03;13.10;99.90
68051;DHT22;54839;51.364;7.246;2022-10-16T00:18:29;13.10;99.90
68051;DHT22;54839;51.364;7.246;2022-10-16T00:20:56;13.10;99.90
68051;DHT22;54839;51.364;7.246;2022-10-16T00:23:26;13.10;99.90
68051;DHT22;54839;51.364;7.246;2022-10-16T00:26:00;13.20;99.90
68051;DHT22;54839;51.364;7.246;2022-10-16T00:28:26;13.10;99.90
68051;DHT22;54839;51.364;7.246;2022-10-16T00:30:52;13.20;99.90
68051;DHT22;54839;51.364;7.246;2022-10-16T00:33:19;13.10;99.90
68051;DHT22;54839;51.364;7.246;2022-10-16T00:35:44;13.30;99.90
68051;DHT22;54839;51.364;7.246;2022-10-16T00:38:10;13.20;99.90
68051;DHT22;54839;51.364;7.246;2022-10-16T00:40:35;13.30;99.90
68051;DHT22;54839;51.364;7.246;2022-10-16T00:43:01;13.20;99.90
68051;DHT22;54839;51.364;7.246;2022-10-16T00:45:27;13.20;99.90
68051;DHT22;54839;51.364;7.246;2022-10-16T00:47:54;13.20;99.90
68051;DHT22;54839;51.364;7.246;2022-10-16T00:52:52;13.30;99.90
68051;DHT22;54839;51.364;7.246;2022-10-16T00:55:18;13.20;99.90
68051;DHT22;54839;51.364;7.246;2022-10-16T00:57:45;13.20;99.90
68051;DHT22;54839;51.364;7.246;2022-10-16T01:00:13;13.10;99.90
68051;DHT22;54839;51.364;7.246;2022-10-16T01:02:39;13.10;99.90
68051;DHT22;54839;51.364;7.246;2022-10-16T01:05:05;13.10;99.90
68051;DHT22;54839;51.364;7.246;2022-10-16T01:10:38;13.20;99.90
68051;DHT22;54839;51.364;7.246;2022-10-16T01:13:07;13.20;99.90
68051;DHT22;54839;51.364;7.246;2022-10-16T01:18:37;13.30;99.90
68051;DHT22;54839;51.364;7.246;2022-10-16T01:21:06;13.30;99.90
68051;DHT22;54839;51.364;7.246;2022-10-16T01:32:16;13.20;99.90
68051;DHT22;54839;51.364;7.246;2022-10-16T01:34:56;13.20;99.90
68051;DHT22;54839;51.364;7.246;2022-10-16T01:37:36;13.10;99.90
68051;DHT22;54839;51.364;7.246;2022-10-16T01:40:09;13.20;99.90
68051;DHT22;54839;51.364;7.246;2022-10-16T01:42:52;13.10;99.90
68051;DHT22;54839;51.364;7.246;2022-10-16T01:45:19;13.00;99.90
68051;DHT22;54839;51.364;7.246;2022-10-16T01:47:46;13.00;99.90
68051;DHT22;54839;51.364;7.246;2022-10-16T01:50:14;13.00;99.90
68051;DHT22;54839;51.364;7.246;2022-10-16T01:52:44;13.00;99.90
68051;DHT22;54839;51.364;7.246;2022-10-16T01:55:15;13.00;99.90
68051;DHT22;54839;51.364;7.246;2022-10-16T01:57:44;13.00;99.90
68051;DHT22;54839;51.364;7.246;2022-10-16T02:00:13;13.10;99.90
68051;DHT22;54839;51.364;7.246;2022-10-16T02:02:42;13.00;99.90
68051;DHT22;54839;51.364;7.246;2022-10-16T02:05:15;13.00;99.90
68051;DHT22;54839;51.364;7.246;2022-10-16T02:07:42;13.00;99.90
68051;DHT22;54839;51.364;7.246;2022-10-16T02:10:08;12.90;99.90
68051;DHT22;54839;51.364;7.246;2022-10-16T02:12:36;12.90;99.90
68051;DHT22;54839;51.364;7.246;2022-10-16T02:15:03;12.80;99.90
68051;DHT22;54839;51.364;7.246;2022-10-16T02:17:28;12.80;99.90
68051;DHT22;54839;51.364;7.246;2022-10-16T02:19:55;12.80;99.90
68051;DHT22;54839;51.364;7.246;2022-10-16T02:24:54;12.90;99.90
68051;DHT22;54839;51.364;7.246;2022-10-16T02:27:33;12.90;99.90
68051;DHT22;54839;51.364;7.246;2022-10-16T02:30:04;12.90;99.90
68051;DHT22;54839;51.364;7.246;2022-10-16T02:32:34;12.80;99.90
68051;DHT22;54839;51.364;7.246;2022-10-16T02:35:01;12.70;99.90
68051;DHT22;54839;51.364;7.246;2022-10-16T02:37:28;12.70;99.90
68051;DHT22;54839;51.364;7.246;2022-10-16T02:39:54;12.70;99.90
68051;DHT22;54839;51.364;7.246;2022-10-16T02:42:20;12.80;99.90
68051;DHT22;54839;51.364;7.246;2022-10-16T02:44:46;12.80;99.90
68051;DHT22;54839;51.364;7.246;2022-10-16T02:47:11;12.80;99.90
68051;DHT22;54839;51.364;7.246;2022-10-16T02:49:37;12.90;99.90
68051;DHT22;54839;51.364;7.246;2022-10-16T02:52:03;13.00;99.90
68051;DHT22;54839;51.364;7.246;2022-10-16T02:54:28;13.00;99.90
68051;DHT22;54839;51.364;7.246;2022-10-16T02:56:54;13.00;99.90
68051;DHT22;54839;51.364;7.246;2022-10-16T02:59:19;13.00;99.90
68051;DHT22;54839;51.364;7.246;2022-10-16T03:01:45;13.10;99.90
68051;DHT22;54839;51.364;7.246;2022-10-16T03:04:11;13.10;99.90
68051;DHT22;54839;51.364;7.246;2022-10-16T03:06:36;13.10;99.90
68051;DHT22;54839;51.364;7.246;2022-10-16T03:09:02;13.20;99.90
68051;DHT22;54839;51.364;7.246;2022-10-16T03:11:27;13.20;99.90
68051;DHT22;54839;51.364;7.246;2022-10-16T03:13:53;13.20;99.90
68051;DHT22;54839;51.364;7.246;2022-10-16T03:16:19;13.20;99.90
68051;DHT22;54839;51.364;7.246;2022-10-16T03:18:48;13.30;99.90
68051;DHT22;54839;51.364;7.246;2022-10-16T03:21:15;13.20;99.90
68051;DHT22;54839;51.364;7.246;2022-10-16T03:23:40;13.30;99.90
68051;DHT22;54839;51.364;7.246;2022-10-16T03:26:06;13.20;99.90
68051;DHT22;54839;51.364;7.246;2022-10-16T03:28:31;13.10;99.90
68051;DHT22;54839;51.364;7.246;2022-10-16T03:30:57;13.10;99.90
68051;DHT22;54839;51.364;7.246;2022-10-16T03:33:22;13.10;99.90
68051;DHT22;54839;51.364;7.246;2022-10-16T03:35:52;13.10;99.90
68051;DHT22;54839;51.364;7.246;2022-10-16T03:38:18;13.10;99.90
68051;DHT22;54839;51.364;7.246;2022-10-16T03:40:44;12.90;99.90
68051;DHT22;54839;51.364;7.246;2022-10-16T03:43:09;13.00;99.90
68051;DHT22;54839;51.364;7.246;2022-10-16T03:45:35;13.00;99.90
68051;DHT22;54839;51.364;7.246;2022-10-16T03:48:00;13.00;99.90
68051;DHT22;54839;51.364;7.246;2022-10-16T03:50:27;13.00;99.90
68051;DHT22;54839;51.364;7.246;2022-10-16T03:52:53;12.90;99.90
68051;DHT22;54839;51.364;7.246;2022-10-16T03:55:18;13.00;99.90
68051;DHT22;54839;51.364;7.246;2022-10-16T03:57:44;13.00;99.90
68051;DHT22;54839;51.364;7.246;2022-10-16T04:00:10;12.90;99.90
68051;DHT22;54839;51.364;7.246;2022-10-16T04:02:36;13.00;99.90
68051;DHT22;54839;51.364;7.246;2022-10-16T04:05:01;12.90;99.90
68051;DHT22;54839;51.364;7.246;2022-10-16T04:07:27;12.90;99.90
68051;DHT22;54839;51.364;7.246;2022-10-16T04:09:52;12.90;99.90
68051;DHT22;54839;51.364;7.246;2022-10-16T04:12:18;12.80;99.90
68051;DHT22;54839;51.364;7.246;2022-10-16T04:14:44;12.70;99.90
68051;DHT22;54839;51.364;7.246;2022-10-16T04:17:09;12.70;99.90
68051;DHT22;54839;51.364;7.246;2022-10-16T04:19:35;12.70;99.90
68051;DHT22;54839;51.364;7.246;2022-10-16T04:22:00;12.60;99.90
68051;DHT22;54839;51.364;7.246;2022-10-16T04:24:26;12.70;99.90
68051;DHT22;54839;51.364;7.246;2022-10-16T04:28:08;12.60;99.90
68051;DHT22;54839;51.364;7.246;2022-10-16T04:30:33;12.60;99.90
68051;DHT22;54839;51.364;7.246;2022-10-16T04:32:59;12.70;99.90
68051;DHT22;54839;51.364;7.246;2022-10-16T04:35:24;12.60;99.90
68051;DHT22;54839;51.364;7.246;2022-10-16T04:37:50;12.60;99.90
68051;DHT22;54839;51.364;7.246;2022-10-16T04:40:16;12.70;99.90
68051;DHT22;54839;51.364;7.246;2022-10-16T04:42:41;12.70;99.90
68051;DHT22;54839;51.364;7.246;2022-10-16T04:45:07;12.70;99.90
68051;DHT22;54839;51.364;7.246;2022-10-16T04:47:33;12.60;99.90
68051;DHT22;54839;51.364;7.246;2022-10-16T04:49:59;12.60;99.90
68051;DHT22;54839;51.364;7.246;2022-10-16T04:52:26;12.50;99.90
68051;DHT22;54839;51.364;7.246;2022-10-16T04:54:52;12.60;99.90
68051;DHT22;54839;51.364;7.246;2022-10-16T04:57:17;12.60;99.90
68051;DHT22;54839;51.364;7.246;2022-10-16T04:59:43;12.70;99.90
68051;DHT22;54839;51.364;7.246;2022-10-16T05:02:08;12.60;99.90
68051;DHT22;54839;51.364;7.246;2022-10-16T05:04:34;12.70;99.90
68051;DHT22;54839;51.364;7.246;2022-10-16T05:06:59;12.70;99.90
68051;DHT22;54839;51.364;7.246;2022-10-16T05:09:25;12.70;99.90
68051;DHT22;54839;51.364;7.246;2022-10-16T05:11:50;12.80;99.90
68051;DHT22;54839;51.364;7.246;2022-10-16T05:14:16;12.70;99.90
68051;DHT22;54839;51.364;7.246;2022-10-16T05:16:41;12.60;99.90
68051;DHT22;54839;51.364;7.246;2022-10-16T05:19:07;12.70;99.90
68051;DHT22;54839;51.364;7.246;2022-10-16T05:21:32;12.70;99.90
68051;DHT22;54839;51.364;7.246;2022-10-16T05:23:58;12.70;99.90
68051;DHT22;54839;51.364;7.246;2022-10-16T05:26:23;12.70;99.90
68051;DHT22;54839;51.364;7.246;2022-10-16T05:28:49;12.70;99.90
68051;DHT22;54839;51.364;7.246;2022-10-16T05:31:15;12.60;99.90
68051;DHT22;54839;51.364;7.246;2022-10-16T05:33:41;12.60;99.90
68051;DHT22;54839;51.364;7.246;2022-10-16T05:36:08;12.60;99.90
68051;DHT22;54839;51.364;7.246;2022-10-16T05:38:37;12.60;99.90
68051;DHT22;54839;51.364;7.246;2022-10-16T05:41:04;12.60;99.90
68051;DHT22;54839;51.364;7.246;2022-10-16T05:43:31;12.60;99.90
68051;DHT22;54839;51.364;7.246;2022-10-16T05:46:03;12.60;99.90
68051;DHT22;54839;51.364;7.246;2022-10-16T05:48:30;12.70;99.90
68051;DHT22;54839;51.364;7.246;2022-10-16T05:50:57;12.60;99.90
68051;DHT22;54839;51.364;7.246;2022-10-16T05:53:23;12.40;99.90
68051;DHT22;54839;51.364;7.246;2022-10-16T05:55:57;12.40;99.90
68051;DHT22;54839;51.364;7.246;2022-10-16T05:58:23;12.40;99.90
68051;DHT22;54839;51.364;7.246;2022-10-16T06:01:01;12.50;99.90
68051;DHT22;54839;51.364;7.246;2022-10-16T06:03:27;12.50;99.90
68051;DHT22;54839;51.364;7.246;2022-10-16T06:05:53;12.50;99.90
68051;DHT22;54839;51.364;7.246;2022-10-16T06:08:21;12.40;99.90
68051;DHT22;54839;51.364;7.246;2022-10-16T06:10:47;12.60;99.90
68051;DHT22;54839;51.364;7.246;2022-10-16T06:13:13;12.50;99.90
68051;DHT22;54839;51.364;7.246;2022-10-16T06:15:41;12.40;99.90
68051;DHT22;54839;51.364;7.246;2022-10-16T06:18:10;12.60;99.90
68051;DHT22;54839;51.364;7.246;2022-10-16T06:20:36;12.70;99.90
68051;DHT22;54839;51.364;7.246;2022-10-16T06:23:02;12.70;99.90
68051;DHT22;54839;51.364;7.246;2022-10-16T06:25:30;12.60;99.90
68051;DHT22;54839;51.364;7.246;2022-10-16T06:27:55;12.60;99.90
68051;DHT22;54839;51.364;7.246;2022-10-16T06:30:20;12.70;99.90
68051;DHT22;54839;51.364;7.246;2022-10-16T06:32:46;12.50;99.90
68051;DHT22;54839;51.364;7.246;2022-10-16T06:35:11;12.60;99.90
68051;DHT22;54839;51.364;7.246;2022-10-16T06:37:37;12.70;99.90
68051;DHT22;54839;51.364;7.246;2022-10-16T06:40:03;12.80;99.90
68051;DHT22;54839;51.364;7.246;2022-10-16T06:42:30;12.80;99.90
68051;DHT22;54839;51.364;7.246;2022-10-16T06:44:55;12.80;99.90
68051;DHT22;54839;51.364;7.246;2022-10-16T06:47:21;12.80;99.90
68051;DHT22;54839;51.364;7.246;2022-10-16T06:49:46;12.90;99.90
68051;DHT22;54839;51.364;7.246;2022-10-16T06:52:12;12.90;99.90
68051;DHT22;54839;51.364;7.246;2022-10-16T06:54:37;13.00;99.90
68051;DHT22;54839;51.364;7.246;2022-10-16T06:57:03;12.90;99.90
68051;DHT22;54839;51.364;7.246;2022-10-16T06:59:28;13.10;99.90
68051;DHT22;54839;51.364;7.246;2022-10-16T07:01:54;13.10;99.90
68051;DHT22;54839;51.364;7.246;2022-10-16T07:04:19;13.20;99.90
68051;DHT22;54839;51.364;7.246;2022-10-16T07:06:45;13.30;99.90
68051;DHT22;54839;51.364;7.246;2022-10-16T07:09:11;13.40;99.90
68051;DHT22;54839;51.364;7.246;2022-10-16T07:11:39;13.40;99.90
68051;DHT22;54839;51.364;7.246;2022-10-16T07:14:18;13.50;99.90
68051;DHT22;54839;51.364;7.246;2022-10-16T07:16:44;13.60;99.90
68051;DHT22;54839;51.364;7.246;2022-10-16T07:19:09;13.60;99.90
68051;DHT22;54839;51.364;7.246;2022-10-16T07:21:37;13.50;99.90
68051;DHT22;54839;51.364;7.246;2022-10-16T07:24:10;13.60;99.90
68051;DHT22;54839;51.364;7.246;2022-10-16T07:26:36;13.50;99.90
68051;DHT22;54839;51.364;7.246;2022-10-16T07:29:07;13.50;99.90
68051;DHT22;54839;51.364;7.246;2022-10-16T07:31:36;13.50;99.90
68051;DHT22;54839;51.364;7.246;2022-10-16T07:34:01;13.70;99.90
68051;DHT22;54839;51.364;7.246;2022-10-16T07:36:27;13.70;99.90
68051;DHT22;54839;51.364;7.246;2022-10-16T07:38:53;13.70;99.90
68051;DHT22;54839;51.364;7.246;2022-10-16T07:41:19;13.80;99.90
68051;DHT22;54839;51.364;7.246;2022-10-16T07:43:46;13.60;99.90
68051;DHT22;54839;51.364;7.246;2022-10-16T07:46:13;13.80;99.90
68051;DHT22;54839;51.364;7.246;2022-10-16T07:48:38;13.70;99.90
68051;DHT22;54839;51.364;7.246;2022-10-16T07:51:05;13.70;99.90
68051;DHT22;54839;51.364;7.246;2022-10-16T07:53:32;13.60;99.90
68051;DHT22;54839;51.364;7.246;2022-10-16T07:56:03;13.70;99.90
68051;DHT22;54839;51.364;7.246;2022-10-16T07:58:29;13.70;99.90
68051;DHT22;54839;51.364;7.246;2022-10-16T08:00:55;13.80;99.90
68051;DHT22;54839;51.364;7.246;2022-10-16T08:03:21;13.80;99.90
68051;DHT22;54839;51.364;7.246;2022-10-16T08:05:47;13.90;99.90
68051;DHT22;54839;51.364;7.246;2022-10-16T08:08:13;14.00;99.90
68051;DHT22;54839;51.364;7.246;2022-10-16T08:10:40;14.10;99.90
68051;DHT22;54839;51.364;7.246;2022-10-16T08:13:05;14.20;99.90
68051;DHT22;54839;51.364;7.246;2022-10-16T08:15:31;14.30;99.90
68051;DHT22;54839;51.364;7.246;2022-10-16T08:18:01;14.40;99.90
68051;DHT22;54839;51.364;7.246;2022-10-16T08:20:28;14.50;99.90
68051;DHT22;54839;51.364;7.246;2022-10-16T08:22:54;14.50;99.90
68051;DHT22;54839;51.364;7.246;2022-10-16T08:25:21;14.50;99.90
68051;DHT22;54839;51.364;7.246;2022-10-16T08:27:47;14.70;99.90
68051;DHT22;54839;51.364;7.246;2022-10-16T08:30:13;14.70;99.90
68051;DHT22;54839;51.364;7.246;2022-10-16T08:32:38;14.70;99.90
68051;DHT22;54839;51.364;7.246;2022-10-16T08:35:04;14.80;99.90
68051;DHT22;54839;51.364;7.246;2022-10-16T08:37:31;14.80;99.90
68051;DHT22;54839;51.364;7.246;2022-10-16T08:39:57;14.80;99.90
68051;DHT22;54839;51.364;7.246;2022-10-16T08:45:15;15.00;99.90
68051;DHT22;54839;51.364;7.246;2022-10-16T08:48:06;15.10;99.90
68051;DHT22;54839;51.364;7.246;2022-10-16T08:50:38;15.10;99.90
68051;DHT22;54839;51.364;7.246;2022-10-16T08:53:05;15.10;99.90
68051;DHT22;54839;51.364;7.246;2022-10-16T08:55:38;15.20;99.90
68051;DHT22;54839;51.364;7.246;2022-10-16T08:58:18;15.30;99.90
68051;DHT22;54839;51.364;7.246;2022-10-16T09:00:47;15.30;99.90
68051;DHT22;54839;51.364;7.246;2022-10-16T09:03:39;15.40;99.90
68051;DHT22;54839;51.364;7.246;2022-10-16T09:06:31;15.40;99.90
68051;DHT22;54839;51.364;7.246;2022-10-16T09:12:18;15.40;99.90
68051;DHT22;54839;51.364;7.246;2022-10-16T09:15:14;15.40;99.90
68051;DHT22;54839;51.364;7.246;2022-10-16T09:17:48;15.50;99.90
68051;DHT22;54839;51.364;7.246;2022-10-16T09:20:26;15.50;99.90
68051;DHT22;54839;51.364;7.246;2022-10-16T09:23:08;15.50;99.90
68051;DHT22;54839;51.364;7.246;2022-10-16T09:25:35;15.70;99.90
68051;DHT22;54839;51.364;7.246;2022-10-16T09:28:01;15.70;99.90
68051;DHT22;54839;51.364;7.246;2022-10-16T09:30:28;15.70;99.90
68051;DHT22;54839;51.364;7.246;2022-10-16T09:32:58;15.70;99.90
68051;DHT22;54839;51.364;7.246;2022-10-16T09:35:33;15.70;99.90
68051;DHT22;54839;51.364;7.246;2022-10-16T09:38:00;15.80;99.90
68051;DHT22;54839;51.364;7.246;2022-10-16T09:40:38;16.00;99.90
68051;DHT22;54839;51.364;7.246;2022-10-16T09:43:23;16.20;99.90
68051;DHT22;54839;51.364;7.246;2022-10-16T09:48:26;16.30;99.90
68051;DHT22;54839;51.364;7.246;2022-10-16T09:50:59;16.40;99.90
68051;DHT22;54839;51.364;7.246;2022-10-16T09:53:43;16.50;99.90
68051;DHT22;54839;51.364;7.246;2022-10-16T09:56:11;16.60;99.90
68051;DHT22;54839;51.364;7.246;2022-10-16T09:58:42;16.90;99.90
68051;DHT22;54839;51.364;7.246;2022-10-16T10:01:13;16.90;99.90
68051;DHT22;54839;51.364;7.246;2022-10-16T10:03:42;16.90;99.90
68051;DHT22;54839;51.364;7.246;2022-10-16T10:06:21;17.00;99.90
68051;DHT22;54839;51.364;7.246;2022-10-16T10:11:47;16.80;99.90
68051;DHT22;54839;51.364;7.246;2022-10-16T10:16:47;16.60;99.90
68051;DHT22;54839;51.364;7.246;2022-10-16T10:19:20;16.40;99.90
68051;DHT22;54839;51.364;7.246;2022-10-16T10:21:47;16.60;99.90
68051;DHT22;54839;51.364;7.246;2022-10-16T10:24:14;16.40;99.90
68051;DHT22;54839;51.364;7.246;2022-10-16T10:27:08;16.40;99.90
68051;DHT22;54839;51.364;7.246;2022-10-16T10:29:34;16.50;99.90
68051;DHT22;54839;51.364;7.246;2022-10-16T10:32:36;16.60;99.90
68051;DHT22;54839;51.364;7.246;2022-10-16T10:35:19;16.60;99.90
68051;DHT22;54839;51.364;7.246;2022-10-16T10:38:06;16.50;99.90
68051;DHT22;54839;51.364;7.246;2022-10-16T10:40:45;16.40;99.90
68051;DHT22;54839;51.364;7.246;2022-10-16T10:45:57;16.60;99.90
68051;DHT22;54839;51.364;7.246;2022-10-16T10:57:25;16.70;99.90
68051;DHT22;54839;51.364;7.246;2022-10-16T11:00:42;16.70;99.90
68051;DHT22;54839;51.364;7.246;2022-10-16T11:03:03;16.70;99.90
68051;DHT22;54839;51.364;7.246;2022-10-16T11:08:25;16.70;99.90
68051;DHT22;54839;51.364;7.246;2022-10-16T11:11:03;16.90;99.90
68051;DHT22;54839;51.364;7.246;2022-10-16T11:13:39;17.00;99.90
68051;DHT22;54839;51.364;7.246;2022-10-16T11:16:15;17.20;99.90
68051;DHT22;54839;51.364;7.246;2022-10-16T11:21:40;17.40;99.90
68051;DHT22;54839;51.364;7.246;2022-10-16T11:24:26;17.20;99.90
68051;DHT22;54839;51.364;7.246;2022-10-16T11:27:06;17.20;99.90
68051;DHT22;54839;51.364;7.246;2022-10-16T11:29:35;17.10;99.90
68051;DHT22;54839;51.364;7.246;2022-10-16T11:32:18;17.20;99.90
68051;DHT22;54839;51.364;7.246;2022-10-16T11:34:58;17.30;99.90
68051;DHT22;54839;51.364;7.246;2022-10-16T11:37:41;17.40;99.90
68051;DHT22;54839;51.364;7.246;2022-10-16T11:40:21;17.30;99.90
68051;DHT22;54839;51.364;7.246;2022-10-16T11:42:57;17.50;99.90
68051;DHT22;54839;51.364;7.246;2022-10-16T11:45:41;17.50;99.90
68051;DHT22;54839;51.364;7.246;2022-10-16T11:48:36;17.40;99.90
68051;DHT22;54839;51.364;7.246;2022-10-16T11:51:21;17.40;99.90
68051;DHT22;54839;51.364;7.246;2022-10-16T11:53:59;17.30;99.90
68051;DHT22;54839;51.364;7.246;2022-10-16T11:56:27;17.10;99.90
68051;DHT22;54839;51.364;7.246;2022-10-16T11:59:01;17.00;99.90
68051;DHT22;54839;51.364;7.246;2022-10-16T12:01:47;17.00;99.90
68051;DHT22;54839;51.364;7.246;2022-10-16T12:04:16;17.10;99.90
68051;DHT22;54839;51.364;7.246;2022-10-16T12:06:58;17.20;99.90
68051;DHT22;54839;51.364;7.246;2022-10-16T12:09:30;17.20;99.90
68051;DHT22;54839;51.364;7.246;2022-10-16T12:11:57;17.30;99.90
68051;DHT22;54839;51.364;7.246;2022-10-16T12:16:59;17.50;99.90
68051;DHT22;54839;51.364;7.246;2022-10-16T12:19:28;17.40;99.90
68051;DHT22;54839;51.364;7.246;2022-10-16T12:21:56;17.60;99.90
68051;DHT22;54839;51.364;7.246;2022-10-16T12:24:41;17.80;99.90
68051;DHT22;54839;51.364;7.246;2022-10-16T12:27:31;18.10;99.90
68051;DHT22;54839;51.364;7.246;2022-10-16T12:30:00;18.10;99.90
68051;DHT22;54839;51.364;7.246;2022-10-16T12:32:32;18.50;99.90
68051;DHT22;54839;51.364;7.246;2022-10-16T12:34:59;18.50;99.90
68051;DHT22;54839;51.364;7.246;2022-10-16T12:37:29;18.80;99.90
68051;DHT22;54839;51.364;7.246;2022-10-16T12:39:56;18.80;99.90
68051;DHT22;54839;51.364;7.246;2022-10-16T12:44:52;19.00;99.90
68051;DHT22;54839;51.364;7.246;2022-10-16T12:47:21;19.20;99.90
68051;DHT22;54839;51.364;7.246;2022-10-16T12:49:54;20.70;99.90
68051;DHT22;54839;51.364;7.246;2022-10-16T12:54:59;23.30;99.90
68051;DHT22;54839;51.364;7.246;2022-10-16T13:06:38;23.30;99.90
68051;DHT22;54839;51.364;7.246;2022-10-16T13:15:29;21.60;99.90
68051;DHT22;54839;51.364;7.246;2022-10-16T13:18:16;22.60;99.90
68051;DHT22;54839;51.364;7.246;2022-10-16T13:21:10;23.00;99.90
68051;DHT22;54839;51.364;7.246;2022-10-16T13:24:08;24.10;99.90
68051;DHT22;54839;51.364;7.246;2022-10-16T13:26:57;24.30;99.90
68051;DHT22;54839;51.364;7.246;2022-10-16T13:29:32;25.40;99.90
68051;DHT22;54839;51.364;7.246;2022-10-16T13:32:00;23.00;99.90
68051;DHT22;54839;51.364;7.246;2022-10-16T13:34:27;22.70;99.90
68051;DHT22;54839;51.364;7.246;2022-10-16T13:36:53;23.00;99.90
68051;DHT22;54839;51.364;7.246;2022-10-16T13:39:27;23.50;99.90
68051;DHT22;54839;51.364;7.246;2022-10-16T13:42:09;24.90;99.90
68051;DHT22;54839;51.364;7.246;2022-10-16T13:44:44;26.00;99.90
68051;DHT22;54839;51.364;7.246;2022-10-16T13:47:25;26.50;99.90
68051;DHT22;54839;51.364;7.246;2022-10-16T13:50:05;26.00;99.90
68051;DHT22;54839;51.364;7.246;2022-10-16T13:52:32;25.80;99.90
68051;DHT22;54839;51.364;7.246;2022-10-16T13:54:57;25.90;99.90
68051;DHT22;54839;51.364;7.246;2022-10-16T13:57:24;24.90;99.90
68051;DHT22;54839;51.364;7.246;2022-10-16T13:59:51;25.00;99.90
68051;DHT22;54839;51.364;7.246;2022-10-16T14:02:26;23.90;99.90
68051;DHT22;54839;51.364;7.246;2022-10-16T14:04:53;24.00;99.90
68051;DHT22;54839;51.364;7.246;2022-10-16T14:07:24;24.30;99.90
68051;DHT22;54839;51.364;7.246;2022-10-16T14:09:51;23.90;99.90
68051;DHT22;54839;51.364;7.246;2022-10-16T14:12:17;23.60;99.90
68051;DHT22;54839;51.364;7.246;2022-10-16T14:14:48;22.60;99.90
68051;DHT22;54839;51.364;7.246;2022-10-16T14:17:19;22.20;99.90
68051;DHT22;54839;51.364;7.246;2022-10-16T14:19:50;24.40;99.90
68051;DHT22;54839;51.364;7.246;2022-10-16T14:22:37;27.10;99.90
68051;DHT22;54839;51.364;7.246;2022-10-16T14:25:27;28.40;95.70
68051;DHT22;54839;51.364;7.246;2022-10-16T14:28:25;26.20;98.30
68051;DHT22;54839;51.364;7.246;2022-10-16T14:30:56;23.90;99.90
68051;DHT22;54839;51.364;7.246;2022-10-16T14:33:32;23.60;99.90
68051;DHT22;54839;51.364;7.246;2022-10-16T14:36:05;22.70;99.90
68051;DHT22;54839;51.364;7.246;2022-10-16T14:38:40;22.20;99.90
68051;DHT22;54839;51.364;7.246;2022-10-16T14:41:07;21.40;99.90
68051;DHT22;54839;51.364;7.246;2022-10-16T14:43:35;20.70;99.90
68051;DHT22;54839;51.364;7.246;2022-10-16T14:46:03;21.10;99.90
68051;DHT22;54839;51.364;7.246;2022-10-16T14:48:30;21.80;99.90
68051;DHT22;54839;51.364;7.246;2022-10-16T14:50:56;22.20;99.90
68051;DHT22;54839;51.364;7.246;2022-10-16T14:53:22;22.30;99.90
68051;DHT22;54839;51.364;7.246;2022-10-16T14:55:47;22.10;99.90
68051;DHT22;54839;51.364;7.246;2022-10-16T14:58:21;21.80;99.90
68051;DHT22;54839;51.364;7.246;2022-10-16T15:00:48;21.60;99.90
68051;DHT22;54839;51.364;7.246;2022-10-16T15:03:14;21.30;99.90
68051;DHT22;54839;51.364;7.246;2022-10-16T15:05:39;21.20;99.90
68051;DHT22;54839;51.364;7.246;2022-10-16T15:08:05;21.30;99.90
68051;DHT22;54839;51.364;7.246;2022-10-16T15:10:31;21.30;99.90
68051;DHT22;54839;51.364;7.246;2022-10-16T15:12:58;20.60;99.90
68051;DHT22;54839;51.364;7.246;2022-10-16T15:17:57;20.20;99.90
68051;DHT22;54839;51.364;7.246;2022-10-16T15:20:30;20.10;99.90
68051;DHT22;54839;51.364;7.246;2022-10-16T15:22:57;20.10;99.90
68051;DHT22;54839;51.364;7.246;2022-10-16T15:25:35;20.00;99.90
68051;DHT22;54839;51.364;7.246;2022-10-16T15:28:03;20.00;99.90
68051;DHT22;54839;51.364;7.246;2022-10-16T15:30:29;19.90;99.90
68051;DHT22;54839;51.364;7.246;2022-10-16T15:32:55;19.70;99.90
68051;DHT22;54839;51.364;7.246;2022-10-16T15:35:21;19.50;99.90
68051;DHT22;54839;51.364;7.246;2022-10-16T15:37:47;19.60;99.90
68051;DHT22;54839;51.364;7.246;2022-10-16T15:40:14;19.50;99.90
68051;DHT22;54839;51.364;7.246;2022-10-16T15:42:40;19.30;99.90
68051;DHT22;54839;51.364;7.246;2022-10-16T15:45:06;19.30;99.90
68051;DHT22;54839;51.364;7.246;2022-10-16T15:47:32;19.20;99.90
68051;DHT22;54839;51.364;7.246;2022-10-16T15:49:57;19.00;99.90
68051;DHT22;54839;51.364;7.246;2022-10-16T15:52:23;19.00;99.90
68051;DHT22;54839;51.364;7.246;2022-10-16T15:54:48;18.90;99.90
68051;DHT22;54839;51.364;7.246;2022-10-16T15:57:14;18.80;99.90
68051;DHT22;54839;51.364;7.246;2022-10-16T15:59:39;18.70;99.90
68051;DHT22;54839;51.364;7.246;2022-10-16T16:02:05;18.70;99.90
68051;DHT22;54839;51.364;7.246;2022-10-16T16:04:30;18.80;99.90
68051;DHT22;54839;51.364;7.246;2022-10-16T16:06:56;18.60;99.90
68051;DHT22;54839;51.364;7.246;2022-10-16T16:09:22;18.50;99.90
68051;DHT22;54839;51.364;7.246;2022-10-16T16:11:47;18.40;99.90
68051;DHT22;54839;51.364;7.246;2022-10-16T16:14:14;18.20;99.90
68051;DHT22;54839;51.364;7.246;2022-10-16T16:16:41;18.20;99.90
68051;DHT22;54839;51.364;7.246;2022-10-16T16:19:06;18.10;99.90
68051;DHT22;54839;51.364;7.246;2022-10-16T16:21:33;18.10;99.90
68051;DHT22;54839;51.364;7.246;2022-10-16T16:23:59;18.00;99.90
68051;DHT22;54839;51.364;7.246;2022-10-16T16:26:26;18.00;99.90
68051;DHT22;54839;51.364;7.246;2022-10-16T16:28:54;17.90;99.90
68051;DHT22;54839;51.364;7.246;2022-10-16T16:31:24;17.80;99.90
68051;DHT22;54839;51.364;7.246;2022-10-16T16:33:50;17.90;99.90
68051;DHT22;54839;51.364;7.246;2022-10-16T16:36:17;17.70;99.90
68051;DHT22;54839;51.364;7.246;2022-10-16T16:38:43;17.70;99.90
68051;DHT22;54839;51.364;7.246;2022-10-16T16:41:17;17.60;99.90
68051;DHT22;54839;51.364;7.246;2022-10-16T16:43:44;17.60;99.90
68051;DHT22;54839;51.364;7.246;2022-10-16T16:46:10;17.50;99.90
68051;DHT22;54839;51.364;7.246;2022-10-16T16:48:36;17.50;99.90
68051;DHT22;54839;51.364;7.246;2022-10-16T16:51:06;17.50;99.90
68051;DHT22;54839;51.364;7.246;2022-10-16T16:53:36;17.50;99.90
68051;DHT22;54839;51.364;7.246;2022-10-16T16:56:03;17.40;99.90
68051;DHT22;54839;51.364;7.246;2022-10-16T16:58:29;17.30;99.90
68051;DHT22;54839;51.364;7.246;2022-10-16T17:00:55;17.20;99.90
68051;DHT22;54839;51.364;7.246;2022-10-16T17:03:20;17.20;99.90